METAR v bližini

 

LJLJ - Ljubljana/Brnik, Slovenia
Oddaljenost od postaje: W 41km
Podatki zajeti: 25/05/2020 02:30
Jasno
Jasno
 Veter iz smeri spremenljiv
Veter: spremenljiv 2 km/h
Temperatura: 9°C
Rosišče: 7°C
Vlažnost: 87%
Tlak: 1028 hPa
Stanje: Jasno
Vidljivost: večja od 10 km
2020/05/25 00:30 LJLJ 250030Z VRB01KT CAVOK 09/07 Q1028 NOSIG
LJMB - Maribor, Slovenia
Oddaljenost od postaje: NE 63km
Podatki zajeti: 25/05/2020 02:30
Delno oblačno
Delno oblačno
 Veter iz smeri SSE
Veter: SSE 4 km/h
Temperatura: 12°C
Rosišče: 7°C
Vlažnost: 72%
Tlak: 1028 hPa
Oblačnost: Delno oblačno
Vidljivost: 10 km
2020/05/25 00:30 LJMB 250030Z AUTO 15002KT 9999 NSC 12/07 Q1028
 
LJPZ - Portoroz, Slovenia
Oddaljenost od postaje: SW 130km
Podatki zajeti: 25/05/2020 02:30
Jasno
Jasno
 Veter iz smeri ESE
Veter: ESE 15 km/h
Temperatura: 12°C
Rosišče: 9°C
Vlažnost: 82%
Tlak: 1027 hPa
Oblačnost: Jasno
Vidljivost: 10 km
2020/05/25 00:30 LJPZ 250030Z AUTO 12008KT 9999 NCD 12/09 Q1027
LJCE - Cerklje, Slovenia
Oddaljenost od postaje: ESE 49km
Podatki zajeti: 25/05/2020 02:30
Delno oblačno
Delno oblačno
 Veter iz smeri WSW
Veter: WSW 4 km/h
Temperatura: 10°C
Rosišče: 8°C
Vlažnost: 88%
Tlak: 1028 hPa
Oblačnost: Delno oblačno
Vidljivost: 10 km
2020/05/25 00:30 LJCE 250030Z AUTO 24002KT 9999 NSC 10/08 Q1028
 
LDZA - Zagreb/Pleso, Croatia
Oddaljenost od postaje: ESE 96km
Podatki zajeti: 25/05/2020 02:30
Jasno
Jasno
 Veter iz smeri SW
Veter: SW 4 km/h
Temperatura: 12°C
Rosišče: 10°C
Vlažnost: 88%
Tlak: 1027 hPa
Stanje: Jasno
Vidljivost: večja od 10 km
2020/05/25 00:30 LDZA 250030Z 22002KT CAVOK 12/10 Q1027 NOSIG
LDRI - Rijeka/Omisalj, Croatia
Oddaljenost od postaje: SSW 109km
Podatki zajeti: 25/05/2020 02:30
Jasno
Jasno
 Veter iz smeri spremenljiv
Veter: spremenljiv 2 km/h
Temperatura: 14°C
Rosišče: 6°C
Vlažnost: 59%
Tlak: 1027 hPa
Stanje: Jasno
Vidljivost: večja od 10 km
2020/05/25 00:30 LDRI 250030Z VRB01KT CAVOK 14/06 Q1027
 
LDPL - Pula, Croatia
Oddaljenost od postaje: SSW 164km
Podatki zajeti: 25/05/2020 02:30
Jasno
Jasno
 Veter iz smeri NE
Veter: NE 15 km/h
Temperatura: 15°C
Rosišče: 6°C
Vlažnost: 55%
Tlak: 1027 hPa
Stanje: Jasno
Vidljivost: večja od 10 km
2020/05/25 00:30 LDPL 250030Z 04008KT CAVOK 15/06 Q1027
LOWK - Klagenfurt(Civ/M, Austria
Oddaljenost od postaje: NW 76km
Podatki zajeti: 25/05/2020 02:20
Pretežno oblačno
Pretežno oblačno
 Veter iz smeri spremenljiv
Veter: spremenljiv 4 km/h
Temperatura: 11°C
Rosišče: 5°C
Vlažnost: 67%
Tlak: 1028 hPa
Oblačnost: Pretežno oblačno
Vidljivost: 10 km
Podrobnosti o oblakih: Rahlo oblačno 2438 m
Pretežno oblačno 3048 m
2020/05/25 00:20 LOWK 250020Z AUTO VRB02KT 9999 FEW080 BKN100 11/05 Q1028
 
LOWG - Graz (mil/Civ), Austria
Oddaljenost od postaje: NNE 100km
Podatki zajeti: 25/05/2020 02:20
Pretežno oblačno
Pretežno oblačno
 Veter iz smeri W
Veter: W 6 km/h
Temperatura: 13°C
Rosišče: 5°C
Vlažnost: 59%
Tlak: 1027 hPa
Oblačnost: Pretežno oblačno
Vidljivost: 10 km
Podrobnosti o oblakih: Rahlo oblačno 1829 m
Pretežno oblačno 2134 m
2020/05/25 00:20 LOWG 250020Z AUTO 26003KT 9999 FEW060 BKN070 13/05 Q1027
LOAN - Wr.neustadt East, Austria
Oddaljenost od postaje: NNE 212km
Podatki zajeti: 24/05/2020 20:00
Ni posodobljen
Pretežno oblačno
Pretežno oblačno
 Veter iz smeri W
Veter: W 19 km/h
Oblačnost: Pretežno oblačno
Podrobnosti o oblakih: Rahlo oblačno 1219 m
Delno oblačno 1524 m
Pretežno oblačno 3048 m
2020/05/24 18:00 LOAN 241800Z 28010KT 25KM FEW040CU SCT050SC BKN100AC
 
LIPQ - Ronchi Legionari, Italy
Oddaljenost od postaje: SW 35km
Podatki zajeti: 25/05/2020 02:20
Jasno
Jasno
 Veter iz smeri ESE
Veter: ESE 13 km/h
Temperatura: 12°C
Rosišče: 9°C
Vlažnost: 82%
Tlak: 1027 hPa
Oblačnost: Jasno
Vidljivost: 10 km
2020/05/25 00:20 LIPQ 250020Z AUTO 11007KT 9999 // NCD 12/09 Q1027
LIVT - Trieste, Italy
Oddaljenost od postaje: WSW 109km
Podatki zajeti: 25/05/2020 01:55
Jasno
Jasno
 Veter iz smeri spremenljiv
Veter: spremenljiv 0 km/h
Temperatura: 16°C
Rosišče: 12°C
Vlažnost: 77%
Tlak: 1026 hPa
Stanje: Jasno
Vidljivost: večja od 10 km
2020/05/24 23:55 LIVT 242355Z /////KT CAVOK 16/12 Q1026 RMK SKC QUK / QUL / VIS MAR 20 KM VIS MIN 9999
 
LIVO - Tarvisio, Italy
Oddaljenost od postaje: NNW 49km
Podatki zajeti: 24/05/2020 19:55
Ni posodobljen
Rahlo oblačno
Rahlo oblačno
 Veter iz smeri calm
Veter: Calm
Temperatura: 13°C
Rosišče: 6°C
Vlažnost: 63%
Tlak: 1026 hPa
Oblačnost: Rahlo oblačno
Vidljivost: 10 km
Podrobnosti o oblakih: Rahlo oblačno 1219 m
2020/05/24 17:55 LIVO 241755Z 00000KT 9999 FEW040 13/06 Q1026 RMK FEW VIS MIN 9999
LIPZ - Venezia/Tessera, Italy
Oddaljenost od postaje: WSW 217km
Podatki zajeti: 25/05/2020 02:20
Jasno
Jasno
 Veter iz smeri W
Veter: W 6 km/h
Temperatura: 17°C
Rosišče: 12°C
Vlažnost: 73%
Tlak: 1026 hPa
Stanje: Jasno
Vidljivost: večja od 10 km
2020/05/25 00:20 LIPZ 250020Z 27003KT CAVOK 17/12 Q1026 NOSIG
 
LHSM - Balaton, Hungary
Oddaljenost od postaje: ENE 177km
Podatki zajeti: 25/05/2020 02:15
Jasno
Jasno
 Veter iz smeri NNW
Veter: NNW 11 km/h
Temperatura: 9°C
Občutek mraza zaradi vetra: 7°C
Rosišče: 7°C
Vlažnost: 87%
Tlak: 1027 hPa
Stanje: Jasno
Vidljivost: večja od 10 km
2020/05/25 00:15 LHSM 250015Z AUTO 34006KT CAVOK 09/07 Q1027